Time;durP1;ratioP1;P1;durP2;ratioP2;P2;SDS_P1;SDS_P2;PMS_P1;PMS_P2;Temp;Humidity;BMP_temperature;BMP_pressure;BME280_temperature;BME280_humidity;BME280_pressure;Samples;Min_cycle;Max_cycle;Signal;HPM_P1;HPM_P2
2020/12/13 00:00:26;;;;;;;18.27;10.77;;;;;;;5.77;85.42;100751.53;5047870;28;20052;-78
2020/12/13 00:02:56;;;;;;;19.67;10.40;;;;;;;5.77;85.59;100754.22;5047174;28;20021;-76
2020/12/13 00:05:21;;;;;;;18.92;10.65;;;;;;;5.77;85.63;100749.63;5064633;28;20463;-78
2020/12/13 00:07:47;;;;;;;15.00;9.27;;;;;;;5.76;85.61;100753.41;5050622;28;20028;-78
2020/12/13 00:10:13;;;;;;;15.38;9.65;;;;;;;5.76;85.49;100755.31;5050246;28;20032;-77
2020/12/13 00:12:38;;;;;;;14.07;8.55;;;;;;;5.76;85.69;100753.41;5053377;28;20028;-77
2020/12/13 00:15:04;;;;;;;16.73;9.63;;;;;;;5.76;85.83;100745.28;5051467;28;20025;-77
2020/12/13 00:17:30;;;;;;;16.65;10.38;;;;;;;5.77;85.69;100752.34;5051004;28;20021;-77
2020/12/13 00:19:55;;;;;;;14.68;8.88;;;;;;;5.76;85.95;100750.69;5049355;28;20328;-77
2020/12/13 00:22:20;;;;;;;14.00;8.50;;;;;;;5.74;85.83;100752.81;5052075;28;20016;-78
2020/12/13 00:24:46;;;;;;;12.85;8.23;;;;;;;5.75;85.92;100751.75;5049639;28;20024;-77
2020/12/13 00:27:13;;;;;;;16.52;8.55;;;;;;;5.78;86.03;100758.56;5051148;28;20043;-77
2020/12/13 00:29:38;;;;;;;16.02;9.30;;;;;;;5.81;85.92;100765.38;5047393;28;20013;-78
2020/12/13 00:32:04;;;;;;;14.75;9.10;;;;;;;5.79;86.23;100763.75;5052009;28;20036;-77
2020/12/13 00:34:29;;;;;;;15.27;9.13;;;;;;;5.80;86.02;100767.25;5051124;28;20493;-77
2020/12/13 00:36:55;;;;;;;14.35;8.73;;;;;;;5.81;86.02;100762.66;5053099;28;20053;-77
2020/12/13 00:39:20;;;;;;;12.63;8.48;;;;;;;5.82;86.06;100770.56;5048702;28;20036;-77
2020/12/13 00:41:52;;;;;;;13.32;9.25;;;;;;;5.84;86.09;100778.41;5068153;28;20114;-77
2020/12/13 00:44:17;;;;;;;10.95;6.78;;;;;;;5.85;86.01;100771.94;5050776;28;20028;-76
2020/12/13 00:46:43;;;;;;;15.80;8.98;;;;;;;5.84;85.96;100775.69;5050040;28;20430;-76
2020/12/13 00:49:08;;;;;;;14.98;9.63;;;;;;;5.84;86.29;100779.25;5050057;28;20135;-77
2020/12/13 00:51:34;;;;;;;14.52;9.02;;;;;;;5.86;86.02;100779.81;5051290;28;20024;-77
2020/12/13 00:53:59;;;;;;;15.15;8.98;;;;;;;5.87;85.92;100780.66;5049105;28;20036;-77
2020/12/13 00:56:24;;;;;;;13.82;8.65;;;;;;;5.87;86.11;100777.94;5051437;28;20082;-77
2020/12/13 00:58:50;;;;;;;13.95;8.43;;;;;;;5.86;86.32;100776.28;5049527;28;20016;-76
2020/12/13 01:01:15;;;;;;;17.92;9.38;;;;;;;5.86;86.05;100782.50;5054505;28;20517;-78
2020/12/13 01:03:41;;;;;;;13.23;7.85;;;;;;;5.87;85.99;100783.38;5049329;28;20043;-77
2020/12/13 01:06:06;;;;;;;14.32;8.63;;;;;;;5.87;86.23;100786.06;5052532;28;20029;-77
2020/12/13 01:08:31;;;;;;;14.32;8.13;;;;;;;5.87;85.97;100783.38;5083622;28;20025;-77
2020/12/13 01:10:57;;;;;;;12.70;7.82;;;;;;;5.86;86.10;100785.22;5052470;28;20025;-76
2020/12/13 01:13:22;;;;;;;12.15;7.80;;;;;;;5.88;86.28;100785.00;5049960;28;20048;-76
2020/12/13 01:15:50;;;;;;;12.20;7.10;;;;;;;5.88;86.15;100785.00;5049128;28;20029;-77
2020/12/13 01:18:15;;;;;;;13.07;7.45;;;;;;;5.88;86.13;100777.69;5048756;28;20110;-77
2020/12/13 01:20:41;;;;;;;11.75;7.63;;;;;;;5.88;86.29;100785.81;5084543;28;20025;-77
2020/12/13 01:23:07;;;;;;;12.98;7.35;;;;;;;5.88;86.10;100783.09;5052418;28;20459;-78
2020/12/13 01:25:33;;;;;;;13.45;7.70;;;;;;;5.88;86.12;100790.41;5049826;28;20149;-76
2020/12/13 01:27:58;;;;;;;12.43;7.20;;;;;;;5.88;86.14;100796.63;5051734;28;20028;-78
2020/12/13 01:30:24;;;;;;;13.45;7.90;;;;;;;5.88;86.22;100787.69;5050362;28;20033;-76
2020/12/13 01:32:49;;;;;;;12.35;7.45;;;;;;;5.88;86.09;100790.41;5052162;28;20044;-77
2020/12/13 01:35:14;;;;;;;11.13;7.50;;;;;;;5.88;86.15;100802.03;5050248;28;20496;-77
2020/12/13 01:37:40;;;;;;;11.30;7.22;;;;;;;5.90;86.21;100804.53;5050687;28;20040;-78
2020/12/13 01:40:06;;;;;;;13.13;6.93;;;;;;;5.89;86.18;100800.16;5048377;28;20358;-77
2020/12/13 01:42:38;;;;;;;12.95;7.22;;;;;;;5.91;86.26;100800.75;5050456;28;20033;-77
2020/12/13 01:45:04;;;;;;;9.80;7.07;;;;;;;5.91;86.07;100795.31;5049402;28;20051;-76
2020/12/13 01:47:30;;;;;;;12.75;8.05;;;;;;;5.91;86.17;100796.13;5050784;28;20151;-77
2020/12/13 01:49:55;;;;;;;12.63;7.82;;;;;;;5.91;86.30;100800.75;5049444;28;20021;-77
2020/12/13 01:55:06;;;;;;;13.50;7.50;;;;;;;5.91;86.19;100800.75;5035776;28;20438;-77
2020/12/13 01:57:36;;;;;;;13.68;7.72;;;;;;;5.91;86.08;100806.97;5050912;28;20031;-77
2020/12/13 02:00:19;;;;;;;10.85;6.95;;;;;;;5.92;86.21;100796.97;5031293;28;20079;-77
2020/12/13 02:02:47;;;;;;;11.68;8.07;;;;;;;5.92;86.28;100803.22;5051683;28;20091;-77
2020/12/13 02:05:13;;;;;;;13.15;7.43;;;;;;;5.92;86.22;100796.97;5016527;28;20036;-77
2020/12/13 02:07:38;;;;;;;13.40;7.63;;;;;;;5.91;86.20;100801.56;5051792;28;20025;-77
2020/12/13 02:10:08;;;;;;;10.65;7.10;;;;;;;5.91;86.20;100800.75;5032414;28;20021;-76
2020/12/13 02:12:33;;;;;;;11.30;6.93;;;;;;;5.92;86.35;100796.97;5050557;28;20029;-77
2020/12/13 02:14:59;;;;;;;15.98;7.57;;;;;;;5.92;86.21;100805.06;5048517;28;20025;-77
2020/12/13 02:17:24;;;;;;;9.13;6.53;;;;;;;5.92;86.33;100794.25;5051264;28;20025;-76
2020/12/13 02:19:50;;;;;;;12.07;7.40;;;;;;;5.91;86.26;100801.56;5031928;28;20021;-77
2020/12/13 02:22:15;;;;;;;11.57;7.28;;;;;;;5.91;86.22;100803.44;5049952;28;20032;-77
2020/12/13 02:24:41;;;;;;;12.20;7.25;;;;;;;5.91;86.35;100803.44;5048543;28;20033;-77
2020/12/13 02:27:07;;;;;;;12.13;7.38;;;;;;;5.91;86.37;100806.16;5049441;28;20021;-77
2020/12/13 02:29:33;;;;;;;11.77;7.28;;;;;;;5.90;86.50;100799.91;5032906;28;20024;-77
2020/12/13 02:31:59;;;;;;;12.38;6.70;;;;;;;5.89;86.26;100802.84;5050045;28;20204;-77
2020/12/13 02:34:24;;;;;;;10.75;6.63;;;;;;;5.90;86.42;100801.81;5034507;28;20682;-76
2020/12/13 02:36:50;;;;;;;9.35;6.45;;;;;;;5.90;86.27;100809.94;5051334;28;20490;-77
2020/12/13 02:39:15;;;;;;;13.07;6.97;;;;;;;5.90;86.34;100809.94;5049140;28;20082;-77
2020/12/13 02:41:40;;;;;;;11.57;7.40;;;;;;;5.91;86.49;100803.44;5048301;28;20021;-78
2020/12/13 02:44:06;;;;;;;11.65;6.82;;;;;;;5.90;86.22;100805.34;5039166;28;20467;-77
2020/12/13 02:46:31;;;;;;;11.13;6.72;;;;;;;5.91;86.43;100804.25;5050186;28;20029;-76
2020/12/13 02:48:56;;;;;;;12.43;6.57;;;;;;;5.91;86.22;100806.16;5047366;28;20029;-77
2020/12/13 02:51:22;;;;;;;12.00;7.10;;;;;;;5.90;86.35;100807.22;5051426;28;20471;-77
2020/12/13 02:53:47;;;;;;;9.38;6.45;;;;;;;5.91;86.58;100814.25;5050237;28;20433;-77
2020/12/13 02:56:13;;;;;;;8.70;5.95;;;;;;;5.89;86.29;100808.28;5053189;28;20032;-77
2020/12/13 02:58:38;;;;;;;10.95;7.00;;;;;;;5.89;86.47;100814.53;5052917;28;20017;-77
2020/12/13 03:01:03;;;;;;;11.38;7.00;;;;;;;5.89;86.35;100813.69;5051912;28;20567;-77
2020/12/13 03:03:29;;;;;;;10.20;6.55;;;;;;;5.90;86.43;100809.94;5051698;28;20033;-78
2020/12/13 03:05:54;;;;;;;10.23;7.10;;;;;;;5.90;86.41;100809.94;5054861;28;20481;-77
2020/12/13 03:08:20;;;;;;;11.93;7.05;;;;;;;5.90;86.34;100813.44;5053650;28;20027;-77
2020/12/13 03:10:45;;;;;;;10.85;6.97;;;;;;;5.90;86.50;100810.75;5053762;28;20371;-77
2020/12/13 03:13:10;;;;;;;10.35;6.53;;;;;;;5.92;86.34;100808.63;5051426;28;20417;-77
2020/12/13 03:15:36;;;;;;;10.80;7.07;;;;;;;5.92;86.41;100814.03;5054034;28;20033;-77
2020/12/13 03:18:01;;;;;;;12.85;6.72;;;;;;;5.92;86.44;100808.63;5052644;28;20048;-76
2020/12/13 03:20:26;;;;;;;11.98;7.32;;;;;;;5.93;86.37;100817.56;5054424;28;20071;-77
2020/12/13 03:22:52;;;;;;;11.73;6.75;;;;;;;5.93;86.55;100814.84;5051303;28;20032;-77
2020/12/13 03:25:17;;;;;;;10.40;7.00;;;;;;;5.93;86.48;100820.25;5051995;28;20062;-77
2020/12/13 03:27:43;;;;;;;9.35;6.25;;;;;;;5.91;86.26;100812.38;5053218;28;20020;-77
2020/12/13 03:30:09;;;;;;;10.73;7.10;;;;;;;5.92;86.42;100819.44;5053269;28;20029;-77
2020/12/13 03:32:36;;;;;;;9.82;6.07;;;;;;;5.94;86.46;100821.94;5051073;28;20029;-77
2020/12/13 03:35:03;;;;;;;10.45;6.30;;;;;;;5.95;86.53;100819.00;5052949;28;20419;-77
2020/12/13 03:37:28;;;;;;;12.88;6.82;;;;;;;5.94;86.49;100824.63;5051842;28;20490;-77
2020/12/13 03:39:54;;;;;;;12.40;6.38;;;;;;;5.95;86.57;100821.69;5054215;28;20032;-77
2020/12/13 03:42:19;;;;;;;10.15;6.68;;;;;;;5.94;86.43;100822.75;5052198;28;20028;-78
2020/12/13 03:44:44;;;;;;;8.80;6.03;;;;;;;5.97;86.67;100818.72;5053673;28;20037;-78
2020/12/13 03:47:10;;;;;;;10.95;6.80;;;;;;;5.97;86.46;100821.44;5052763;28;20032;-79
2020/12/13 03:49:35;;;;;;;9.70;6.40;;;;;;;5.98;86.42;100825.81;5051782;28;20016;-78
2020/12/13 03:52:01;;;;;;;11.20;6.53;;;;;;;5.97;86.49;100827.69;5050674;28;20087;-78
2020/12/13 03:54:26;;;;;;;12.50;6.65;;;;;;;5.99;86.30;100832.84;5052041;28;20466;-78
2020/12/13 03:56:51;;;;;;;9.93;6.57;;;;;;;5.99;86.48;100833.66;5051203;28;20025;-78
2020/12/13 03:59:17;;;;;;;11.65;6.30;;;;;;;6.00;86.62;100826.38;5053109;28;20078;-78
2020/12/13 04:01:42;;;;;;;9.25;6.22;;;;;;;6.00;86.37;100831.78;5051301;28;20458;-77
2020/12/13 04:04:07;;;;;;;10.45;6.53;;;;;;;6.00;86.45;100826.38;5085257;28;20390;-77
2020/12/13 04:06:33;;;;;;;9.82;6.63;;;;;;;6.00;86.51;100831.78;5053119;28;20024;-78
2020/12/13 04:08:58;;;;;;;9.23;6.78;;;;;;;6.00;86.32;100832.63;5050116;28;20432;-77
2020/12/13 04:11:24;;;;;;;12.00;6.93;;;;;;;6.00;86.26;100837.19;5051344;28;20064;-77
2020/12/13 04:13:49;;;;;;;10.48;6.38;;;;;;;6.00;86.50;100843.44;5052651;28;20033;-78
2020/12/13 04:16:14;;;;;;;12.57;7.03;;;;;;;6.00;86.47;100834.47;5052087;28;20458;-77
2020/12/13 04:18:40;;;;;;;10.68;6.80;;;;;;;5.99;86.42;100830.97;5051525;28;20021;-78
2020/12/13 04:21:05;;;;;;;9.68;6.10;;;;;;;6.01;86.52;100833.44;5051940;28;20036;-78
2020/12/13 04:23:31;;;;;;;10.73;6.70;;;;;;;6.00;86.58;100831.78;5049566;28;20036;-77
2020/12/13 04:25:57;;;;;;;10.23;6.20;;;;;;;6.01;86.46;100833.44;5053012;28;20427;-77
2020/12/13 04:28:22;;;;;;;9.05;6.00;;;;;;;5.99;86.42;100825.53;5051150;28;20031;-78
2020/12/13 04:30:47;;;;;;;10.25;6.93;;;;;;;6.00;86.33;100827.22;5050891;28;20032;-77
2020/12/13 04:33:13;;;;;;;10.13;6.68;;;;;;;6.00;86.42;100820.94;5032305;28;20025;-78
2020/12/13 04:35:38;;;;;;;10.10;7.00;;;;;;;5.99;86.45;100822.84;5045436;28;20033;-77
2020/12/13 04:38:04;;;;;;;7.93;5.50;;;;;;;5.99;86.27;100824.72;5049826;28;20106;-77
2020/12/13 04:40:32;;;;;;;13.50;6.88;;;;;;;5.99;86.40;100828.25;5052370;28;20028;-77
2020/12/13 04:42:58;;;;;;;8.88;5.85;;;;;;;5.98;86.40;100817.69;5050811;28;20028;-78
2020/12/13 04:45:23;;;;;;;9.35;6.03;;;;;;;5.99;86.28;100824.72;5056456;28;20083;-78
2020/12/13 04:48:08;;;;;;;9.45;5.80;;;;;;;5.98;86.29;100832.03;5035000;28;20440;-79
2020/12/13 04:50:35;;;;;;;8.27;5.75;;;;;;;5.98;86.25;100834.75;5051845;28;20110;-77
2020/12/13 04:53:04;;;;;;;10.27;6.35;;;;;;;5.97;86.48;100826.84;5052115;28;20568;-78
2020/12/13 04:55:29;;;;;;;10.20;6.65;;;;;;;5.98;86.38;100829.31;5051143;28;20442;-77
2020/12/13 04:57:55;;;;;;;11.18;6.32;;;;;;;5.98;86.34;100828.50;5049774;28;20040;-78
2020/12/13 05:00:21;;;;;;;10.35;7.13;;;;;;;6.00;86.51;100826.38;5032539;28;20016;-78
2020/12/13 05:02:46;;;;;;;11.38;6.32;;;;;;;5.99;86.23;100836.38;5039836;28;20017;-78
2020/12/13 05:05:11;;;;;;;8.02;5.57;;;;;;;5.99;86.16;100838.25;5052521;28;20460;-78
2020/12/13 05:07:37;;;;;;;10.52;6.45;;;;;;;5.99;86.18;100830.97;5052410;28;20017;-78
2020/12/13 05:10:03;;;;;;;9.38;6.22;;;;;;;5.99;86.44;100836.38;5048719;28;20439;-77
2020/12/13 05:12:28;;;;;;;9.13;6.00;;;;;;;5.99;86.32;100828.25;5043653;28;20458;-78
2020/12/13 05:14:53;;;;;;;9.82;5.97;;;;;;;6.00;86.40;100837.19;5050541;28;20120;-78
2020/12/13 05:17:19;;;;;;;9.88;6.03;;;;;;;6.01;86.36;100833.44;5053482;28;20471;-78
2020/12/13 05:19:44;;;;;;;10.65;5.95;;;;;;;6.00;86.21;100842.59;5054197;28;20029;-77
2020/12/13 05:22:10;;;;;;;9.55;6.10;;;;;;;5.98;86.52;100842.03;5033948;28;20036;-78
2020/12/13 05:24:35;;;;;;;12.25;6.80;;;;;;;5.98;86.27;100842.03;5051403;28;20040;-78
2020/12/13 05:27:05;;;;;;;11.88;7.05;;;;;;;5.97;86.37;100837.69;5033507;28;20028;-78
2020/12/13 05:29:32;;;;;;;11.18;6.32;;;;;;;5.99;86.18;100840.97;5049331;28;20017;-78
2020/12/13 05:32:15;;;;;;;10.18;5.53;;;;;;;5.97;86.45;100837.69;5033079;28;20497;-78
2020/12/13 05:34:42;;;;;;;11.43;6.38;;;;;;;5.97;86.27;100849.34;5050072;28;20040;-78
2020/12/13 05:37:13;;;;;;;9.85;5.85;;;;;;;5.98;86.28;100847.47;5049575;28;20053;-78
2020/12/13 05:39:39;;;;;;;10.25;5.68;;;;;;;5.98;86.32;100848.28;5050746;28;20086;-78
2020/12/13 05:42:04;;;;;;;8.23;5.70;;;;;;;5.99;86.29;100843.69;5050234;28;20033;-78
2020/12/13 05:45:42;;;;;;;10.52;6.07;;;;;;;6.00;86.50;100853.44;5049887;28;20025;-78
2020/12/13 05:48:16;;;;;;;9.85;5.63;;;;;;;6.00;86.34;100850.72;5051219;28;20037;-77
2020/12/13 05:52:48;;;;;;;9.70;5.82;;;;;;;6.01;86.36;100852.38;5034475;28;20025;-77
2020/12/13 05:55:14;;;;;;;9.88;5.60;;;;;;;6.01;86.25;100857.78;5065637;28;20162;-78
2020/12/13 05:57:39;;;;;;;9.90;5.68;;;;;;;6.02;86.54;100855.91;5083137;28;20029;-78
2020/12/13 06:00:05;;;;;;;11.70;6.57;;;;;;;6.00;86.36;100864.25;5033995;28;20035;-79
2020/12/13 06:02:31;;;;;;;9.18;5.53;;;;;;;6.02;86.22;100861.31;5050405;28;20017;-78
2020/12/13 06:04:56;;;;;;;10.60;5.65;;;;;;;6.02;86.52;100862.13;5030399;28;20025;-78
2020/12/13 06:07:21;;;;;;;9.63;5.78;;;;;;;6.03;86.36;100866.50;5066033;28;20037;-77
2020/12/13 06:09:47;;;;;;;9.32;5.35;;;;;;;6.03;86.65;100869.22;5022186;28;20025;-78
2020/12/13 06:12:12;;;;;;;8.32;5.88;;;;;;;6.05;86.46;100866.25;5033352;28;20047;-78
2020/12/13 06:14:39;;;;;;;8.35;5.70;;;;;;;6.05;86.33;100867.06;5049975;28;20028;-78
2020/12/13 06:17:05;;;;;;;8.13;5.43;;;;;;;6.06;86.32;100868.72;5050118;28;20029;-78
2020/12/13 06:19:32;;;;;;;8.35;5.55;;;;;;;6.05;86.44;100856.22;5050105;28;20099;-78
2020/12/13 06:21:59;;;;;;;9.07;5.18;;;;;;;6.05;86.38;100852.72;5080516;28;20040;-77
2020/12/13 06:24:24;;;;;;;9.23;5.35;;;;;;;6.05;86.52;100861.66;5047709;28;20029;-79
2020/12/13 06:26:50;;;;;;;7.57;5.22;;;;;;;6.05;86.54;100861.66;5051581;28;20090;-77
2020/12/13 06:29:16;;;;;;;13.10;5.57;;;;;;;6.06;86.19;100868.72;5049383;28;20108;-77
2020/12/13 06:31:41;;;;;;;9.07;5.07;;;;;;;6.06;86.27;100868.72;5035730;28;20493;-78
2020/12/13 06:34:07;;;;;;;7.15;4.50;;;;;;;6.06;86.43;100870.59;5053223;28;20025;-78
2020/12/13 06:36:33;;;;;;;8.70;4.57;;;;;;;6.06;86.32;100876.84;5052412;28;20033;-78
2020/12/13 06:38:58;;;;;;;7.93;4.50;;;;;;;6.06;86.41;100868.72;5039912;28;20156;-79
2020/12/13 06:41:28;;;;;;;7.68;4.30;;;;;;;6.06;86.73;100870.59;5054432;28;20496;-78
2020/12/13 06:43:53;;;;;;;5.55;3.78;;;;;;;6.05;86.47;100877.88;5053439;28;20032;-78
2020/12/13 06:46:19;;;;;;;7.75;4.03;;;;;;;6.05;86.51;100880.59;5053671;28;20102;-78
2020/12/13 06:48:45;;;;;;;5.20;3.65;;;;;;;6.03;86.30;100880.03;5053528;28;20037;-79
2020/12/13 06:51:10;;;;;;;6.07;3.53;;;;;;;6.02;86.74;100881.06;5085525;28;20025;-78
2020/12/13 06:53:36;;;;;;;5.13;3.63;;;;;;;6.02;86.65;100885.66;5036046;28;20375;-78
2020/12/13 06:56:09;;;;;;;4.65;3.38;;;;;;;6.02;86.54;100888.38;5054826;28;20037;-78
2020/12/13 06:58:42;;;;;;;4.75;3.33;;;;;;;6.01;86.78;100887.56;5036799;28;20558;-79
2020/12/13 07:01:20;;;;;;;7.68;4.00;;;;;;;6.01;86.55;100890.28;5050564;28;20040;-79
2020/12/13 07:03:48;;;;;;;6.15;3.45;;;;;;;5.99;86.68;100889.69;5051980;28;20031;-78
2020/12/13 07:06:26;;;;;;;3.92;2.85;;;;;;;5.97;86.69;100892.66;5059164;28;20029;-78
2020/12/13 07:08:58;;;;;;;5.00;3.22;;;;;;;5.97;86.61;100900.75;5053102;28;20024;-78
2020/12/13 07:11:26;;;;;;;5.32;3.47;;;;;;;5.97;86.72;100894.50;5052202;28;20489;-77
2020/12/13 07:13:52;;;;;;;5.72;3.85;;;;;;;5.96;86.51;100898.28;5050808;28;20108;-77
2020/12/13 07:16:31;;;;;;;6.32;3.80;;;;;;;5.94;86.65;100903.09;5054598;28;20356;-77
2020/12/13 07:19:05;;;;;;;6.03;3.80;;;;;;;5.92;86.85;100894.38;5051743;28;20497;-78
2020/12/13 07:21:30;;;;;;;5.63;3.90;;;;;;;5.92;86.83;100888.97;5052457;28;20359;-78
2020/12/13 07:24:00;;;;;;;6.47;4.18;;;;;;;5.92;86.57;100888.97;5052324;28;20033;-78
2020/12/13 07:26:27;;;;;;;7.05;4.35;;;;;;;5.91;86.74;100892.72;5053019;28;20067;-78
2020/12/13 07:28:52;;;;;;;8.88;4.35;;;;;;;5.90;86.85;100888.41;5053383;28;20581;-78
2020/12/13 07:31:19;;;;;;;6.75;4.60;;;;;;;5.89;86.69;100889.44;5050115;28;20040;-78
2020/12/13 07:33:45;;;;;;;8.52;4.35;;;;;;;5.91;86.61;100906.25;5052297;28;20036;-78
2020/12/13 07:36:11;;;;;;;6.95;4.07;;;;;;;5.89;86.69;100901.09;5044588;28;20436;-78
2020/12/13 07:38:36;;;;;;;6.60;4.30;;;;;;;5.90;86.79;100904.63;5044958;28;20041;-79
2020/12/13 07:41:02;;;;;;;7.03;4.57;;;;;;;5.92;86.71;100916.00;5043946;28;20200;-79
2020/12/13 07:43:27;;;;;;;5.07;3.50;;;;;;;5.92;86.88;100911.44;5042711;28;20367;-79
2020/12/13 07:45:53;;;;;;;5.15;3.47;;;;;;;5.94;86.50;100919.34;5044942;28;20029;-78
2020/12/13 07:48:18;;;;;;;6.78;3.75;;;;;;;5.93;86.46;100913.13;5026527;28;20036;-79
2020/12/13 07:50:45;;;;;;;6.90;4.10;;;;;;;5.94;86.85;100912.03;5044974;28;20087;-76
2020/12/13 07:53:11;;;;;;;7.28;4.10;;;;;;;5.93;86.82;100913.13;5075633;28;20111;-76
2020/12/13 07:55:42;;;;;;;5.13;3.17;;;;;;;5.94;86.68;100917.44;5043835;28;20509;-77
2020/12/13 07:58:08;;;;;;;4.40;2.90;;;;;;;5.95;86.82;100921.00;5043703;28;20021;-75
2020/12/13 08:00:33;;;;;;;4.82;3.45;;;;;;;5.95;86.70;100921.00;5076178;28;20051;-75
2020/12/13 08:02:58;;;;;;;4.28;2.60;;;;;;;5.95;86.88;100916.41;5046316;28;20032;-76
2020/12/13 08:05:25;;;;;;;4.38;2.92;;;;;;;5.95;86.79;100910.19;5050428;28;20149;-76
2020/12/13 08:07:59;;;;;;;4.05;2.50;;;;;;;5.95;86.70;100915.59;5044266;28;20024;-75
2020/12/13 08:10:28;;;;;;;5.65;3.22;;;;;;;5.94;86.93;100908.53;5041682;28;20281;-75
2020/12/13 08:12:53;;;;;;;5.13;3.15;;;;;;;5.93;86.91;100918.53;5043753;28;20029;-78
2020/12/13 08:15:19;;;;;;;4.43;2.88;;;;;;;5.94;86.69;100916.63;5076526;28;20017;-77
2020/12/13 08:17:44;;;;;;;4.65;2.95;;;;;;;5.94;86.80;100919.34;5043741;28;20032;-77
2020/12/13 08:20:10;;;;;;;7.20;3.30;;;;;;;5.95;86.69;100923.72;5041805;28;20028;-75
2020/12/13 08:22:35;;;;;;;5.97;3.38;;;;;;;5.95;86.99;100929.13;5008499;28;20033;-75
2020/12/13 08:25:05;;;;;;;4.75;3.00;;;;;;;5.95;86.85;100926.41;5059090;28;20035;-76
2020/12/13 08:27:36;;;;;;;9.02;2.90;;;;;;;5.96;86.71;100934.28;5038983;28;20029;-76
2020/12/13 08:30:02;;;;;;;4.65;3.28;;;;;;;5.99;87.15;100933.78;5044712;28;20776;-76
2020/12/13 08:32:32;;;;;;;5.40;2.83;;;;;;;6.00;86.90;100926.50;5027016;28;20848;-77
2020/12/13 08:35:18;;;;;;;3.65;2.53;;;;;;;6.03;86.92;100927.91;5042914;28;20025;-77
2020/12/13 08:38:02;;;;;;;7.18;3.45;;;;;;;6.02;87.02;100928.97;5042261;28;20892;-76
2020/12/13 08:40:34;;;;;;;5.80;3.70;;;;;;;6.01;86.96;100930.88;5041829;28;20021;-78
2020/12/13 08:43:00;;;;;;;6.80;4.15;;;;;;;6.04;87.09;100935.78;5074990;28;20651;-77
2020/12/13 08:45:25;;;;;;;5.43;3.28;;;;;;;6.05;86.77;100932.00;5043927;28;20033;-76
2020/12/13 08:47:51;;;;;;;6.22;4.13;;;;;;;6.05;86.83;100936.59;5041754;28;20032;-76
2020/12/13 08:50:19;;;;;;;6.10;3.60;;;;;;;6.04;86.71;100933.09;5043358;28;20032;-77
2020/12/13 08:52:45;;;;;;;5.93;3.50;;;;;;;6.04;87.02;100943.91;5044875;28;20063;-77
2020/12/13 08:55:10;;;;;;;4.90;2.90;;;;;;;6.05;87.04;100939.31;5042978;28;20029;-76
2020/12/13 08:57:45;;;;;;;5.63;2.83;;;;;;;6.05;87.01;100942.03;5043461;28;20036;-77
2020/12/13 09:00:14;;;;;;;5.43;2.90;;;;;;;6.05;86.91;100942.84;5038149;28;20391;-76
2020/12/13 09:02:39;;;;;;;5.97;3.72;;;;;;;6.05;86.93;100945.53;5043579;28;20047;-77
2020/12/13 09:05:06;;;;;;;5.10;3.22;;;;;;;6.06;86.80;100943.69;5042630;28;20033;-78
2020/12/13 09:07:32;;;;;;;7.22;4.22;;;;;;;6.07;87.03;100943.44;5045554;28;20094;-77
2020/12/13 09:10:17;;;;;;;8.10;3.80;;;;;;;6.08;86.93;100953.19;5063096;28;20033;-76
2020/12/13 09:12:43;;;;;;;7.50;3.90;;;;;;;6.13;86.84;100961.41;5050764;28;20036;-77
2020/12/13 09:15:12;;;;;;;6.95;4.90;;;;;;;6.13;87.01;100950.59;5049535;28;20036;-77
2020/12/13 09:17:38;;;;;;;12.43;5.47;;;;;;;6.15;86.85;100948.47;5044655;28;20063;-76
2020/12/13 09:20:04;;;;;;;8.23;4.57;;;;;;;6.16;86.75;100954.69;5050701;28;20123;-76
2020/12/13 09:22:30;;;;;;;7.70;4.95;;;;;;;6.17;86.97;100967.19;5067284;28;20382;-76
2020/12/13 09:24:57;;;;;;;8.05;3.92;;;;;;;6.15;86.80;100962.00;5051290;28;20039;-76
2020/12/13 09:27:23;;;;;;;6.75;4.22;;;;;;;6.15;87.15;100969.31;5050454;28;20055;-76
2020/12/13 09:29:49;;;;;;;7.53;4.45;;;;;;;6.16;86.91;100970.94;5052165;28;20060;-75
2020/12/13 09:32:15;;;;;;;7.60;3.55;;;;;;;6.16;86.78;100963.63;5049415;28;20041;-76
2020/12/13 09:34:41;;;;;;;6.70;3.50;;;;;;;6.17;86.97;100961.78;5082506;28;20033;-75
2020/12/13 09:37:11;;;;;;;7.30;3.88;;;;;;;6.19;87.07;100965.88;5050045;28;20132;-76
2020/12/13 09:39:36;;;;;;;8.25;4.15;;;;;;;6.20;86.82;100964.81;5051086;28;20025;-76
2020/12/13 09:42:02;;;;;;;6.70;3.80;;;;;;;6.21;86.87;100966.44;5050333;28;20028;-76
2020/12/13 09:44:28;;;;;;;7.20;3.83;;;;;;;6.22;86.97;100965.41;5051128;28;20486;-76
2020/12/13 09:46:54;;;;;;;6.72;3.72;;;;;;;6.20;86.82;100967.53;5051001;28;20090;-76
2020/12/13 09:49:20;;;;;;;6.93;4.20;;;;;;;6.19;86.89;100960.47;5048274;28;20425;-78
2020/12/13 09:51:46;;;;;;;6.75;3.50;;;;;;;6.25;87.12;100965.97;5049919;28;20052;-76
2020/12/13 09:54:11;;;;;;;5.35;3.55;;;;;;;6.27;87.07;100961.94;5052061;28;20409;-76
2020/12/13 09:56:37;;;;;;;6.35;4.03;;;;;;;6.31;87.05;100963.13;5051590;28;20024;-76
2020/12/13 09:59:02;;;;;;;6.70;3.70;;;;;;;6.32;86.79;100958.53;5049828;28;20032;-76
2020/12/13 10:01:27;;;;;;;6.03;3.55;;;;;;;6.32;86.84;100969.38;5052080;28;20025;-77
2020/12/13 10:03:54;;;;;;;6.82;3.72;;;;;;;6.32;87.07;100959.34;5051235;28;20036;-76
2020/12/13 10:11:30;;;;;;;5.30;3.25;;;;;;;6.32;86.93;100970.19;5056368;28;20498;-76
2020/12/13 10:13:56;;;;;;;5.85;3.70;;;;;;;6.31;86.39;100968.53;5055156;28;20178;-76
2020/12/13 10:16:21;;;;;;;7.38;3.85;;;;;;;6.30;86.93;100971.47;5054836;28;20436;-77
2020/12/13 10:18:47;;;;;;;5.97;3.47;;;;;;;6.29;86.65;100969.84;5053847;28;20025;-76
2020/12/13 10:21:12;;;;;;;6.97;3.47;;;;;;;6.29;86.93;100972.56;5055947;28;20463;-76
2020/12/13 10:23:38;;;;;;;6.93;3.60;;;;;;;6.30;86.73;100968.78;5054880;28;20029;-76
2020/12/13 10:26:03;;;;;;;6.18;4.03;;;;;;;6.32;86.88;100969.38;5055176;28;20033;-76
2020/12/13 10:28:28;;;;;;;7.07;3.97;;;;;;;6.32;86.70;100966.66;5053576;28;20079;-75
2020/12/13 10:30:54;;;;;;;5.78;3.08;;;;;;;6.34;86.85;100967.25;5071170;28;20047;-76
2020/12/13 10:33:19;;;;;;;5.10;3.10;;;;;;;6.34;86.88;100969.94;5054904;28;20089;-76
2020/12/13 10:35:45;;;;;;;6.90;3.42;;;;;;;6.32;86.43;100974.78;5037744;28;20029;-75
2020/12/13 10:38:10;;;;;;;6.13;2.92;;;;;;;6.31;86.73;100973.97;5053980;28;20528;-75
2020/12/13 10:40:37;;;;;;;5.85;3.58;;;;;;;6.27;86.64;100966.56;5055500;28;20108;-75
2020/12/13 10:43:02;;;;;;;6.57;3.70;;;;;;;6.25;86.63;100965.97;5054608;28;20174;-76
2020/12/13 10:45:28;;;;;;;5.45;3.42;;;;;;;6.27;86.58;100971.97;5055397;28;20508;-77
2020/12/13 10:47:53;;;;;;;4.40;2.95;;;;;;;6.28;86.69;100968.22;5053208;28;20375;-76
2020/12/13 10:50:19;;;;;;;6.05;3.20;;;;;;;6.28;86.42;100973.63;5054077;28;20021;-77
2020/12/13 10:52:45;;;;;;;6.40;3.67;;;;;;;6.26;86.50;100976.56;5053280;28;20031;-77
2020/12/13 10:55:10;;;;;;;4.45;2.80;;;;;;;6.25;86.61;100972.22;5060888;28;20347;-75
2020/12/13 10:57:36;;;;;;;4.80;3.15;;;;;;;6.26;86.40;100975.75;5053244;28;20029;-75
2020/12/13 11:00:01;;;;;;;6.20;3.83;;;;;;;6.25;86.46;100979.50;5055262;28;20024;-75
2020/12/13 11:02:26;;;;;;;5.82;3.40;;;;;;;6.23;86.21;100983.28;5054297;28;20029;-75
2020/12/13 11:04:52;;;;;;;5.65;3.42;;;;;;;6.25;86.43;100995.75;5055200;28;20017;-75
2020/12/13 11:07:17;;;;;;;5.32;3.70;;;;;;;6.25;86.39;100984.91;5054428;28;20036;-77
2020/12/13 11:09:42;;;;;;;5.35;3.40;;;;;;;6.25;86.43;100993.03;5054987;28;20532;-77
2020/12/13 11:12:08;;;;;;;5.53;3.30;;;;;;;6.25;86.53;100998.44;5053906;28;20028;-77
2020/12/13 11:14:33;;;;;;;5.90;3.80;;;;;;;6.22;86.39;100989.75;5053858;28;20529;-77
2020/12/13 11:16:59;;;;;;;6.80;3.38;;;;;;;6.21;86.63;100996.22;5051533;28;20032;-75
2020/12/13 11:19:24;;;;;;;7.43;3.72;;;;;;;6.20;86.53;100997.28;5054086;28;20402;-75
2020/12/13 11:21:49;;;;;;;7.57;3.78;;;;;;;6.19;86.42;100992.97;5053959;28;20075;-76
2020/12/13 11:24:15;;;;;;;5.63;3.20;;;;;;;6.19;86.46;100995.66;5054797;28;20025;-76
2020/12/13 11:26:42;;;;;;;7.60;4.13;;;;;;;6.18;86.20;100991.28;5054328;28;20029;-76
2020/12/13 11:29:07;;;;;;;5.45;3.53;;;;;;;6.16;86.56;100988.00;5069029;28;20108;-75
2020/12/13 11:31:33;;;;;;;8.20;4.10;;;;;;;6.17;86.49;100988.84;5054769;28;20025;-76
2020/12/13 11:33:59;;;;;;;6.97;3.83;;;;;;;6.14;86.51;100995.56;5053738;28;20539;-76
2020/12/13 11:36:26;;;;;;;6.03;3.60;;;;;;;6.12;86.23;100994.97;5069785;28;20177;-76